Terminal Aerodrome Forecast
Issued by NWS

Home | Current Version | Previous Version | Text Only | Print | Product List | Glossary On
Versions: 1 2 3 4 5 6 7 8 9 10 11 12
000
FTUS41 KRNK 251136
TAFLWB
TAF
KLWB 251136Z 2512/2612 VRB04KT P6SM BKN060 OVC200
     FM251500 23006KT P6SM BKN060 OVC200
     FM260400 VRB03KT P6SM OVC015=

USA.gov is the U.S. government's official web portal to all federal, state and local government web resources and services.